sensor_id;sensor_type;location;lat;lon;timestamp;pressure;altitude;pressure_sealevel;temperature
76898;BMP180;65856;52.178;21.176;2023-02-01T00:00:37;99141.40;;;3.40
76898;BMP180;65856;52.178;21.176;2023-02-01T00:03:08;99137.80;;;3.36
76898;BMP180;65856;52.178;21.176;2023-02-01T00:05:39;99134.20;;;3.34
76898;BMP180;65856;52.178;21.176;2023-02-01T00:08:11;99144.80;;;3.30
76898;BMP180;65856;52.178;21.176;2023-02-01T00:10:41;99129.40;;;3.30
76898;BMP180;65856;52.178;21.176;2023-02-01T00:13:12;99131.00;;;3.30
76898;BMP180;65856;52.178;21.176;2023-02-01T00:15:42;99122.80;;;3.30
76898;BMP180;65856;52.178;21.176;2023-02-01T00:18:13;99127.80;;;3.30
76898;BMP180;65856;52.178;21.176;2023-02-01T00:20:47;99113.00;;;3.38
76898;BMP180;65856;52.178;21.176;2023-02-01T00:23:18;99109.40;;;3.40
76898;BMP180;65856;52.178;21.176;2023-02-01T00:25:48;99107.60;;;3.40
76898;BMP180;65856;52.178;21.176;2023-02-01T00:28:19;99114.00;;;3.42
76898;BMP180;65856;52.178;21.176;2023-02-01T00:30:58;99110.20;;;3.40
76898;BMP180;65856;52.178;21.176;2023-02-01T00:33:30;99113.00;;;3.40
76898;BMP180;65856;52.178;21.176;2023-02-01T00:36:03;99118.60;;;3.42
76898;BMP180;65856;52.178;21.176;2023-02-01T00:38:36;99129.20;;;3.40
76898;BMP180;65856;52.178;21.176;2023-02-01T00:41:09;99130.00;;;3.32
76898;BMP180;65856;52.178;21.176;2023-02-01T00:43:41;99135.80;;;3.32
76898;BMP180;65856;52.178;21.176;2023-02-01T00:46:14;99135.40;;;3.30
76898;BMP180;65856;52.178;21.176;2023-02-01T00:48:45;99130.80;;;3.28
76898;BMP180;65856;52.178;21.176;2023-02-01T00:51:19;99135.20;;;3.30
76898;BMP180;65856;52.178;21.176;2023-02-01T00:53:50;99139.40;;;3.30
76898;BMP180;65856;52.178;21.176;2023-02-01T00:56:21;99133.40;;;3.30
76898;BMP180;65856;52.178;21.176;2023-02-01T00:58:52;99135.20;;;3.30
76898;BMP180;65856;52.178;21.176;2023-02-01T01:01:25;99136.20;;;3.30
76898;BMP180;65856;52.178;21.176;2023-02-01T01:03:59;99142.00;;;3.30
76898;BMP180;65856;52.178;21.176;2023-02-01T01:06:33;99140.40;;;3.30
76898;BMP180;65856;52.178;21.176;2023-02-01T01:09:06;99136.60;;;3.30
76898;BMP180;65856;52.178;21.176;2023-02-01T01:11:38;99129.20;;;3.30
76898;BMP180;65856;52.178;21.176;2023-02-01T01:14:10;99122.00;;;3.36
76898;BMP180;65856;52.178;21.176;2023-02-01T01:16:41;99126.40;;;3.40
76898;BMP180;65856;52.178;21.176;2023-02-01T01:19:11;99135.20;;;3.30
76898;BMP180;65856;52.178;21.176;2023-02-01T01:21:41;99136.20;;;3.30
76898;BMP180;65856;52.178;21.176;2023-02-01T01:24:12;99138.20;;;3.30
76898;BMP180;65856;52.178;21.176;2023-02-01T01:26:43;99146.60;;;3.36
76898;BMP180;65856;52.178;21.176;2023-02-01T01:29:13;99141.60;;;3.34
76898;BMP180;65856;52.178;21.176;2023-02-01T01:31:44;99145.40;;;3.30
76898;BMP180;65856;52.178;21.176;2023-02-01T01:34:14;99146.00;;;3.30
76898;BMP180;65856;52.178;21.176;2023-02-01T01:36:44;99149.20;;;3.30
76898;BMP180;65856;52.178;21.176;2023-02-01T01:39:15;99149.80;;;3.26
76898;BMP180;65856;52.178;21.176;2023-02-01T01:41:45;99156.20;;;3.20
76898;BMP180;65856;52.178;21.176;2023-02-01T01:44:58;99156.00;;;3.20
76898;BMP180;65856;52.178;21.176;2023-02-01T01:47:32;99157.20;;;3.20
76898;BMP180;65856;52.178;21.176;2023-02-01T01:50:07;99159.00;;;3.20
76898;BMP180;65856;52.178;21.176;2023-02-01T01:52:41;99159.20;;;3.20
76898;BMP180;65856;52.178;21.176;2023-02-01T01:55:12;99153.40;;;3.24
76898;BMP180;65856;52.178;21.176;2023-02-01T01:57:44;99168.60;;;3.20
76898;BMP180;65856;52.178;21.176;2023-02-01T02:00:20;99169.00;;;3.20
76898;BMP180;65856;52.178;21.176;2023-02-01T02:02:58;99172.80;;;3.20
76898;BMP180;65856;52.178;21.176;2023-02-01T02:05:33;99172.60;;;3.20
76898;BMP180;65856;52.178;21.176;2023-02-01T02:08:03;99173.40;;;3.20
76898;BMP180;65856;52.178;21.176;2023-02-01T02:10:34;99171.60;;;3.20
76898;BMP180;65856;52.178;21.176;2023-02-01T02:13:24;99175.80;;;3.20
76898;BMP180;65856;52.178;21.176;2023-02-01T02:16:11;99183.40;;;3.20
76898;BMP180;65856;52.178;21.176;2023-02-01T02:19:03;99181.80;;;3.20
76898;BMP180;65856;52.178;21.176;2023-02-01T02:22:00;99178.40;;;3.20
76898;BMP180;65856;52.178;21.176;2023-02-01T02:28:56;99179.60;;;3.20
76898;BMP180;65856;52.178;21.176;2023-02-01T02:31:52;99176.00;;;3.28
76898;BMP180;65856;52.178;21.176;2023-02-01T02:34:30;99175.20;;;3.22
76898;BMP180;65856;52.178;21.176;2023-02-01T02:37:11;99177.40;;;3.20
76898;BMP180;65856;52.178;21.176;2023-02-01T02:39:54;99176.00;;;3.30
76898;BMP180;65856;52.178;21.176;2023-02-01T02:42:32;99185.00;;;3.24
76898;BMP180;65856;52.178;21.176;2023-02-01T02:45:29;99189.60;;;3.20
76898;BMP180;65856;52.178;21.176;2023-02-01T02:48:26;99179.40;;;3.20
76898;BMP180;65856;52.178;21.176;2023-02-01T02:51:05;99182.60;;;3.16
76898;BMP180;65856;52.178;21.176;2023-02-01T02:54:02;99182.00;;;3.10
76898;BMP180;65856;52.178;21.176;2023-02-01T02:56:55;99190.40;;;3.10
76898;BMP180;65856;52.178;21.176;2023-02-01T02:59:46;99191.00;;;3.10
76898;BMP180;65856;52.178;21.176;2023-02-01T03:02:36;99189.60;;;3.10
76898;BMP180;65856;52.178;21.176;2023-02-01T03:05:25;99204.20;;;3.16
76898;BMP180;65856;52.178;21.176;2023-02-01T03:08:11;99202.80;;;3.16
76898;BMP180;65856;52.178;21.176;2023-02-01T03:10:49;99210.60;;;3.18
76898;BMP180;65856;52.178;21.176;2023-02-01T03:13:33;99209.20;;;3.20
76898;BMP180;65856;52.178;21.176;2023-02-01T03:16:13;99207.60;;;3.16
76898;BMP180;65856;52.178;21.176;2023-02-01T03:18:51;99205.00;;;3.12
76898;BMP180;65856;52.178;21.176;2023-02-01T03:21:28;99206.00;;;3.10
76898;BMP180;65856;52.178;21.176;2023-02-01T03:24:06;99211.40;;;3.14
76898;BMP180;65856;52.178;21.176;2023-02-01T03:26:43;99206.60;;;3.16
76898;BMP180;65856;52.178;21.176;2023-02-01T03:29:21;99205.00;;;3.10
76898;BMP180;65856;52.178;21.176;2023-02-01T03:31:53;99210.40;;;3.10
76898;BMP180;65856;52.178;21.176;2023-02-01T03:34:24;99205.20;;;3.18
76898;BMP180;65856;52.178;21.176;2023-02-01T03:37:02;99215.20;;;3.20
76898;BMP180;65856;52.178;21.176;2023-02-01T03:39:39;99221.60;;;3.20
76898;BMP180;65856;52.178;21.176;2023-02-01T03:42:18;99219.80;;;3.20
76898;BMP180;65856;52.178;21.176;2023-02-01T03:44:57;99221.00;;;3.20
76898;BMP180;65856;52.178;21.176;2023-02-01T03:47:33;99219.20;;;3.20
76898;BMP180;65856;52.178;21.176;2023-02-01T03:50:11;99222.80;;;3.20
76898;BMP180;65856;52.178;21.176;2023-02-01T03:52:50;99215.20;;;3.20
76898;BMP180;65856;52.178;21.176;2023-02-01T03:55:23;99217.00;;;3.20
76898;BMP180;65856;52.178;21.176;2023-02-01T03:58:00;99222.00;;;3.20
76898;BMP180;65856;52.178;21.176;2023-02-01T04:00:32;99224.60;;;3.20
76898;BMP180;65856;52.178;21.176;2023-02-01T04:03:04;99226.80;;;3.20
76898;BMP180;65856;52.178;21.176;2023-02-01T04:05:35;99232.00;;;3.14
76898;BMP180;65856;52.178;21.176;2023-02-01T04:08:06;99227.20;;;3.20
76898;BMP180;65856;52.178;21.176;2023-02-01T04:10:37;99220.00;;;3.20
76898;BMP180;65856;52.178;21.176;2023-02-01T04:13:08;99224.00;;;3.20
76898;BMP180;65856;52.178;21.176;2023-02-01T04:15:38;99222.60;;;3.20
76898;BMP180;65856;52.178;21.176;2023-02-01T04:18:09;99233.00;;;3.20
76898;BMP180;65856;52.178;21.176;2023-02-01T04:20:40;99227.60;;;3.10
76898;BMP180;65856;52.178;21.176;2023-02-01T04:23:10;99232.00;;;3.10
76898;BMP180;65856;52.178;21.176;2023-02-01T04:25:40;99226.40;;;3.10
76898;BMP180;65856;52.178;21.176;2023-02-01T04:28:11;99227.00;;;3.00
76898;BMP180;65856;52.178;21.176;2023-02-01T04:30:41;99221.60;;;3.02
76898;BMP180;65856;52.178;21.176;2023-02-01T04:33:12;99230.40;;;3.00
76898;BMP180;65856;52.178;21.176;2023-02-01T04:35:43;99223.60;;;3.00
76898;BMP180;65856;52.178;21.176;2023-02-01T04:38:14;99230.20;;;3.00
76898;BMP180;65856;52.178;21.176;2023-02-01T04:40:45;99227.80;;;3.04
76898;BMP180;65856;52.178;21.176;2023-02-01T04:43:14;99235.60;;;3.00
76898;BMP180;65856;52.178;21.176;2023-02-01T04:45:49;99239.40;;;3.00
76898;BMP180;65856;52.178;21.176;2023-02-01T04:48:21;99244.00;;;3.00
76898;BMP180;65856;52.178;21.176;2023-02-01T04:50:52;99245.20;;;3.08
76898;BMP180;65856;52.178;21.176;2023-02-01T04:53:23;99243.20;;;3.10
76898;BMP180;65856;52.178;21.176;2023-02-01T04:55:53;99242.60;;;3.10
76898;BMP180;65856;52.178;21.176;2023-02-01T04:58:24;99251.20;;;3.10
76898;BMP180;65856;52.178;21.176;2023-02-01T05:00:54;99251.00;;;3.12
76898;BMP180;65856;52.178;21.176;2023-02-01T05:03:25;99254.80;;;3.10
76898;BMP180;65856;52.178;21.176;2023-02-01T05:05:55;99254.60;;;3.20
76898;BMP180;65856;52.178;21.176;2023-02-01T05:08:26;99253.20;;;3.16
76898;BMP180;65856;52.178;21.176;2023-02-01T05:10:58;99254.40;;;3.12
76898;BMP180;65856;52.178;21.176;2023-02-01T05:13:31;99262.80;;;3.20
76898;BMP180;65856;52.178;21.176;2023-02-01T05:16:20;99264.80;;;3.20
76898;BMP180;65856;52.178;21.176;2023-02-01T05:18:51;99267.20;;;3.20
76898;BMP180;65856;52.178;21.176;2023-02-01T05:21:22;99265.20;;;3.20
76898;BMP180;65856;52.178;21.176;2023-02-01T05:23:52;99267.60;;;3.20
76898;BMP180;65856;52.178;21.176;2023-02-01T05:26:42;99263.40;;;3.20
76898;BMP180;65856;52.178;21.176;2023-02-01T05:29:14;99264.60;;;3.20
76898;BMP180;65856;52.178;21.176;2023-02-01T05:31:46;99260.40;;;3.20
76898;BMP180;65856;52.178;21.176;2023-02-01T05:34:17;99264.20;;;3.20
76898;BMP180;65856;52.178;21.176;2023-02-01T05:36:48;99257.40;;;3.20
76898;BMP180;65856;52.178;21.176;2023-02-01T05:39:18;99257.00;;;3.20
76898;BMP180;65856;52.178;21.176;2023-02-01T05:41:49;99261.20;;;3.20
76898;BMP180;65856;52.178;21.176;2023-02-01T05:44:19;99255.80;;;3.20
76898;BMP180;65856;52.178;21.176;2023-02-01T05:46:49;99255.00;;;3.20
76898;BMP180;65856;52.178;21.176;2023-02-01T05:49:21;99257.20;;;3.20
76898;BMP180;65856;52.178;21.176;2023-02-01T05:51:52;99250.60;;;3.22
76898;BMP180;65856;52.178;21.176;2023-02-01T05:54:22;99249.00;;;3.30
76898;BMP180;65856;52.178;21.176;2023-02-01T05:56:53;99245.80;;;3.20
76898;BMP180;65856;52.178;21.176;2023-02-01T05:59:23;99251.80;;;3.28
76898;BMP180;65856;52.178;21.176;2023-02-01T06:01:54;99255.20;;;3.20
76898;BMP180;65856;52.178;21.176;2023-02-01T06:04:24;99260.00;;;3.20
76898;BMP180;65856;52.178;21.176;2023-02-01T06:06:55;99259.40;;;3.20
76898;BMP180;65856;52.178;21.176;2023-02-01T06:09:25;99257.80;;;3.20
76898;BMP180;65856;52.178;21.176;2023-02-01T06:11:56;99257.80;;;3.20
76898;BMP180;65856;52.178;21.176;2023-02-01T06:14:27;99255.40;;;3.20
76898;BMP180;65856;52.178;21.176;2023-02-01T06:16:57;99259.60;;;3.28
76898;BMP180;65856;52.178;21.176;2023-02-01T06:19:28;99253.00;;;3.30
76898;BMP180;65856;52.178;21.176;2023-02-01T06:25:40;99255.00;;;3.30
76898;BMP180;65856;52.178;21.176;2023-02-01T06:28:10;99248.60;;;3.30
76898;BMP180;65856;52.178;21.176;2023-02-01T06:30:40;99251.20;;;3.28
76898;BMP180;65856;52.178;21.176;2023-02-01T06:33:15;99243.80;;;3.24
76898;BMP180;65856;52.178;21.176;2023-02-01T06:35:46;99245.80;;;3.20
76898;BMP180;65856;52.178;21.176;2023-02-01T06:38:17;99237.60;;;3.20
76898;BMP180;65856;52.178;21.176;2023-02-01T06:40:55;99237.60;;;3.20
76898;BMP180;65856;52.178;21.176;2023-02-01T06:43:28;99250.00;;;3.20
76898;BMP180;65856;52.178;21.176;2023-02-01T06:46:05;99244.00;;;3.20
76898;BMP180;65856;52.178;21.176;2023-02-01T06:48:37;99241.40;;;3.30
76898;BMP180;65856;52.178;21.176;2023-02-01T06:51:19;99237.60;;;3.30
76898;BMP180;65856;52.178;21.176;2023-02-01T06:53:50;99236.40;;;3.40
76898;BMP180;65856;52.178;21.176;2023-02-01T06:56:21;99230.40;;;3.42
76898;BMP180;65856;52.178;21.176;2023-02-01T06:58:52;99231.60;;;3.44
76898;BMP180;65856;52.178;21.176;2023-02-01T07:01:22;99231.60;;;3.40
76898;BMP180;65856;52.178;21.176;2023-02-01T07:03:53;99230.80;;;3.40
76898;BMP180;65856;52.178;21.176;2023-02-01T07:06:24;99227.40;;;3.40
76898;BMP180;65856;52.178;21.176;2023-02-01T07:08:55;99230.20;;;3.40
76898;BMP180;65856;52.178;21.176;2023-02-01T07:11:26;99241.20;;;3.40
76898;BMP180;65856;52.178;21.176;2023-02-01T07:13:57;99234.20;;;3.40
76898;BMP180;65856;52.178;21.176;2023-02-01T07:16:28;99249.20;;;3.40
76898;BMP180;65856;52.178;21.176;2023-02-01T07:19:00;99243.80;;;3.46
76898;BMP180;65856;52.178;21.176;2023-02-01T07:21:30;99243.00;;;3.44
76898;BMP180;65856;52.178;21.176;2023-02-01T07:24:01;99242.80;;;3.50
76898;BMP180;65856;52.178;21.176;2023-02-01T07:26:32;99252.00;;;3.50
76898;BMP180;65856;52.178;21.176;2023-02-01T07:29:02;99247.40;;;3.50
76898;BMP180;65856;52.178;21.176;2023-02-01T07:31:33;99249.00;;;3.50
76898;BMP180;65856;52.178;21.176;2023-02-01T07:34:03;99252.00;;;3.48
76898;BMP180;65856;52.178;21.176;2023-02-01T07:36:34;99244.00;;;3.42
76898;BMP180;65856;52.178;21.176;2023-02-01T07:39:05;99244.40;;;3.40
76898;BMP180;65856;52.178;21.176;2023-02-01T07:41:36;99239.60;;;3.40
76898;BMP180;65856;52.178;21.176;2023-02-01T07:44:06;99245.60;;;3.40
76898;BMP180;65856;52.178;21.176;2023-02-01T07:46:37;99248.40;;;3.40
76898;BMP180;65856;52.178;21.176;2023-02-01T07:49:08;99245.20;;;3.40
76898;BMP180;65856;52.178;21.176;2023-02-01T07:51:39;99248.20;;;3.40
76898;BMP180;65856;52.178;21.176;2023-02-01T07:54:10;99252.80;;;3.48
76898;BMP180;65856;52.178;21.176;2023-02-01T07:56:40;99252.00;;;3.50
76898;BMP180;65856;52.178;21.176;2023-02-01T07:59:11;99247.00;;;3.50
76898;BMP180;65856;52.178;21.176;2023-02-01T08:01:41;99250.80;;;3.52
76898;BMP180;65856;52.178;21.176;2023-02-01T08:04:14;99248.60;;;3.70
76898;BMP180;65856;52.178;21.176;2023-02-01T08:06:45;99253.40;;;3.70
76898;BMP180;65856;52.178;21.176;2023-02-01T08:09:15;99252.60;;;3.70
76898;BMP180;65856;52.178;21.176;2023-02-01T08:11:46;99249.20;;;3.70
76898;BMP180;65856;52.178;21.176;2023-02-01T08:14:17;99249.80;;;3.70
76898;BMP180;65856;52.178;21.176;2023-02-01T08:16:47;99254.20;;;3.62
76898;BMP180;65856;52.178;21.176;2023-02-01T08:19:39;99250.40;;;3.60
76898;BMP180;65856;52.178;21.176;2023-02-01T08:22:10;99255.60;;;3.60
76898;BMP180;65856;52.178;21.176;2023-02-01T08:24:40;99250.60;;;3.60
76898;BMP180;65856;52.178;21.176;2023-02-01T08:27:11;99257.00;;;3.60
76898;BMP180;65856;52.178;21.176;2023-02-01T08:29:42;99250.40;;;3.60
76898;BMP180;65856;52.178;21.176;2023-02-01T08:32:12;99265.40;;;3.62
76898;BMP180;65856;52.178;21.176;2023-02-01T08:34:43;99267.80;;;3.68
76898;BMP180;65856;52.178;21.176;2023-02-01T08:37:13;99267.80;;;3.70
76898;BMP180;65856;52.178;21.176;2023-02-01T08:39:44;99264.60;;;3.70
76898;BMP180;65856;52.178;21.176;2023-02-01T08:42:15;99259.20;;;3.70
76898;BMP180;65856;52.178;21.176;2023-02-01T08:45:04;99259.80;;;3.62
76898;BMP180;65856;52.178;21.176;2023-02-01T08:47:37;99267.80;;;3.60
76898;BMP180;65856;52.178;21.176;2023-02-01T08:50:11;99264.20;;;3.68
76898;BMP180;65856;52.178;21.176;2023-02-01T08:52:44;99260.40;;;3.60
76898;BMP180;65856;52.178;21.176;2023-02-01T08:55:15;99263.00;;;3.60
76898;BMP180;65856;52.178;21.176;2023-02-01T08:57:46;99261.00;;;3.60
76898;BMP180;65856;52.178;21.176;2023-02-01T09:00:18;99262.80;;;3.60
76898;BMP180;65856;52.178;21.176;2023-02-01T09:02:48;99258.80;;;3.64
76898;BMP180;65856;52.178;21.176;2023-02-01T09:05:19;99264.00;;;3.60
76898;BMP180;65856;52.178;21.176;2023-02-01T09:07:51;99264.60;;;3.60
76898;BMP180;65856;52.178;21.176;2023-02-01T09:10:22;99258.40;;;3.60
76898;BMP180;65856;52.178;21.176;2023-02-01T09:12:52;99261.60;;;3.60
76898;BMP180;65856;52.178;21.176;2023-02-01T09:15:23;99259.80;;;3.64
76898;BMP180;65856;52.178;21.176;2023-02-01T09:17:53;99265.20;;;3.70
76898;BMP180;65856;52.178;21.176;2023-02-01T09:20:23;99257.80;;;3.70
76898;BMP180;65856;52.178;21.176;2023-02-01T09:22:55;99257.40;;;3.70
76898;BMP180;65856;52.178;21.176;2023-02-01T09:25:26;99254.60;;;3.70
76898;BMP180;65856;52.178;21.176;2023-02-01T09:27:57;99257.80;;;3.70
76898;BMP180;65856;52.178;21.176;2023-02-01T09:30:27;99258.40;;;3.70
76898;BMP180;65856;52.178;21.176;2023-02-01T09:32:58;99256.20;;;3.72
76898;BMP180;65856;52.178;21.176;2023-02-01T09:35:28;99256.40;;;3.80
76898;BMP180;65856;52.178;21.176;2023-02-01T09:37:59;99262.00;;;3.82
76898;BMP180;65856;52.178;21.176;2023-02-01T09:40:29;99260.00;;;3.90
76898;BMP180;65856;52.178;21.176;2023-02-01T09:43:15;99260.00;;;3.92
76898;BMP180;65856;52.178;21.176;2023-02-01T09:46:02;99255.60;;;4.00
76898;BMP180;65856;52.178;21.176;2023-02-01T09:48:40;99253.40;;;4.00
76898;BMP180;65856;52.178;21.176;2023-02-01T09:51:19;99237.00;;;4.00
76898;BMP180;65856;52.178;21.176;2023-02-01T09:54:01;99238.60;;;4.02
76898;BMP180;65856;52.178;21.176;2023-02-01T09:56:41;99242.80;;;4.10
76898;BMP180;65856;52.178;21.176;2023-02-01T09:59:26;99239.20;;;4.10
76898;BMP180;65856;52.178;21.176;2023-02-01T10:02:00;99238.80;;;4.20
76898;BMP180;65856;52.178;21.176;2023-02-01T10:04:34;99235.40;;;4.26
76898;BMP180;65856;52.178;21.176;2023-02-01T10:07:22;99240.00;;;4.32
76898;BMP180;65856;52.178;21.176;2023-02-01T10:10:04;99245.00;;;4.40
76898;BMP180;65856;52.178;21.176;2023-02-01T10:12:58;99231.60;;;4.40
76898;BMP180;65856;52.178;21.176;2023-02-01T10:15:50;99239.80;;;4.50
76898;BMP180;65856;52.178;21.176;2023-02-01T10:18:39;99236.80;;;4.50
76898;BMP180;65856;52.178;21.176;2023-02-01T10:21:28;99237.00;;;4.50
76898;BMP180;65856;52.178;21.176;2023-02-01T10:24:17;99235.60;;;4.50
76898;BMP180;65856;52.178;21.176;2023-02-01T10:26:59;99232.40;;;4.50
76898;BMP180;65856;52.178;21.176;2023-02-01T10:29:36;99233.40;;;4.50
76898;BMP180;65856;52.178;21.176;2023-02-01T10:32:15;99234.60;;;4.50
76898;BMP180;65856;52.178;21.176;2023-02-01T10:34:51;99237.80;;;4.50
76898;BMP180;65856;52.178;21.176;2023-02-01T10:37:29;99240.40;;;4.70
76898;BMP180;65856;52.178;21.176;2023-02-01T10:40:14;99242.40;;;4.62
76898;BMP180;65856;52.178;21.176;2023-02-01T10:42:47;99244.60;;;4.60
76898;BMP180;65856;52.178;21.176;2023-02-01T10:45:21;99243.40;;;4.50
76898;BMP180;65856;52.178;21.176;2023-02-01T10:47:57;99245.40;;;4.50
76898;BMP180;65856;52.178;21.176;2023-02-01T10:50:37;99243.40;;;4.50
76898;BMP180;65856;52.178;21.176;2023-02-01T10:53:17;99246.20;;;4.50
76898;BMP180;65856;52.178;21.176;2023-02-01T10:55:53;99246.40;;;4.58
76898;BMP180;65856;52.178;21.176;2023-02-01T10:58:30;99247.00;;;4.60
76898;BMP180;65856;52.178;21.176;2023-02-01T11:01:04;99246.40;;;4.60
76898;BMP180;65856;52.178;21.176;2023-02-01T11:03:40;99244.20;;;4.64
76898;BMP180;65856;52.178;21.176;2023-02-01T11:06:25;99243.40;;;4.66
76898;BMP180;65856;52.178;21.176;2023-02-01T11:08:59;99238.20;;;4.70
76898;BMP180;65856;52.178;21.176;2023-02-01T11:11:30;99238.80;;;4.70
76898;BMP180;65856;52.178;21.176;2023-02-01T11:14:13;99235.60;;;4.70
76898;BMP180;65856;52.178;21.176;2023-02-01T11:16:51;99244.40;;;4.98
76898;BMP180;65856;52.178;21.176;2023-02-01T11:19:22;99235.40;;;5.00
76898;BMP180;65856;52.178;21.176;2023-02-01T11:21:55;99239.20;;;5.00
76898;BMP180;65856;52.178;21.176;2023-02-01T11:24:31;99243.20;;;5.00
76898;BMP180;65856;52.178;21.176;2023-02-01T11:27:06;99238.60;;;5.00
76898;BMP180;65856;52.178;21.176;2023-02-01T11:29:46;99239.20;;;5.00
76898;BMP180;65856;52.178;21.176;2023-02-01T11:32:21;99232.20;;;5.00
76898;BMP180;65856;52.178;21.176;2023-02-01T11:34:57;99243.00;;;5.00
76898;BMP180;65856;52.178;21.176;2023-02-01T11:37:35;99235.60;;;5.00
76898;BMP180;65856;52.178;21.176;2023-02-01T11:40:27;99234.20;;;5.00
76898;BMP180;65856;52.178;21.176;2023-02-01T11:43:08;99228.60;;;5.00
76898;BMP180;65856;52.178;21.176;2023-02-01T11:45:38;99238.40;;;5.00
76898;BMP180;65856;52.178;21.176;2023-02-01T11:48:16;99230.20;;;5.00
76898;BMP180;65856;52.178;21.176;2023-02-01T11:50:55;99229.60;;;5.00
76898;BMP180;65856;52.178;21.176;2023-02-01T11:53:55;99227.40;;;5.00
76898;BMP180;65856;52.178;21.176;2023-02-01T11:56:35;99231.40;;;5.00
76898;BMP180;65856;52.178;21.176;2023-02-01T11:59:27;99233.60;;;5.00
76898;BMP180;65856;52.178;21.176;2023-02-01T12:02:23;99226.80;;;4.92
76898;BMP180;65856;52.178;21.176;2023-02-01T12:05:19;99230.60;;;4.90
76898;BMP180;65856;52.178;21.176;2023-02-01T12:08:07;99221.40;;;4.90
76898;BMP180;65856;52.178;21.176;2023-02-01T12:10:54;99225.00;;;4.90
76898;BMP180;65856;52.178;21.176;2023-02-01T12:13:49;99210.20;;;4.94
76898;BMP180;65856;52.178;21.176;2023-02-01T12:16:35;99206.60;;;4.92
76898;BMP180;65856;52.178;21.176;2023-02-01T12:19:23;99205.00;;;4.90
76898;BMP180;65856;52.178;21.176;2023-02-01T12:22:19;99205.00;;;5.00
76898;BMP180;65856;52.178;21.176;2023-02-01T12:25:14;99195.80;;;5.00
76898;BMP180;65856;52.178;21.176;2023-02-01T12:28:08;99199.60;;;5.04
76898;BMP180;65856;52.178;21.176;2023-02-01T12:31:07;99201.20;;;5.00
76898;BMP180;65856;52.178;21.176;2023-02-01T12:33:57;99201.20;;;5.00
76898;BMP180;65856;52.178;21.176;2023-02-01T12:36:40;99199.80;;;4.98
76898;BMP180;65856;52.178;21.176;2023-02-01T12:39:24;99197.60;;;4.90
76898;BMP180;65856;52.178;21.176;2023-02-01T12:42:09;99202.40;;;4.90
76898;BMP180;65856;52.178;21.176;2023-02-01T12:44:48;99198.00;;;4.90
76898;BMP180;65856;52.178;21.176;2023-02-01T12:47:26;99209.20;;;5.00
76898;BMP180;65856;52.178;21.176;2023-02-01T12:50:04;99208.60;;;4.90
76898;BMP180;65856;52.178;21.176;2023-02-01T12:52:42;99207.40;;;4.90
76898;BMP180;65856;52.178;21.176;2023-02-01T12:55:22;99207.60;;;4.90
76898;BMP180;65856;52.178;21.176;2023-02-01T12:58:01;99208.00;;;4.90
76898;BMP180;65856;52.178;21.176;2023-02-01T13:00:40;99209.60;;;4.90
76898;BMP180;65856;52.178;21.176;2023-02-01T13:03:29;99206.40;;;4.90
76898;BMP180;65856;52.178;21.176;2023-02-01T13:06:08;99206.00;;;4.96
76898;BMP180;65856;52.178;21.176;2023-02-01T13:08:47;99208.80;;;5.00
76898;BMP180;65856;52.178;21.176;2023-02-01T13:11:24;99209.40;;;5.08
76898;BMP180;65856;52.178;21.176;2023-02-01T13:14:03;99209.20;;;5.10
76898;BMP180;65856;52.178;21.176;2023-02-01T13:16:42;99213.00;;;5.10
76898;BMP180;65856;52.178;21.176;2023-02-01T13:19:19;99213.40;;;5.10
76898;BMP180;65856;52.178;21.176;2023-02-01T13:21:55;99210.80;;;5.10
76898;BMP180;65856;52.178;21.176;2023-02-01T13:24:41;99212.60;;;5.10
76898;BMP180;65856;52.178;21.176;2023-02-01T13:27:16;99211.00;;;5.10
76898;BMP180;65856;52.178;21.176;2023-02-01T13:29:55;99211.80;;;5.10
76898;BMP180;65856;52.178;21.176;2023-02-01T13:32:54;99209.80;;;5.00
76898;BMP180;65856;52.178;21.176;2023-02-01T13:36:08;99214.00;;;5.00
76898;BMP180;65856;52.178;21.176;2023-02-01T13:39:22;99212.80;;;5.02
76898;BMP180;65856;52.178;21.176;2023-02-01T13:42:00;99215.00;;;5.00
76898;BMP180;65856;52.178;21.176;2023-02-01T13:44:41;99218.80;;;5.00
76898;BMP180;65856;52.178;21.176;2023-02-01T13:47:24;99226.40;;;5.00
76898;BMP180;65856;52.178;21.176;2023-02-01T13:49:59;99225.80;;;4.90
76898;BMP180;65856;52.178;21.176;2023-02-01T13:52:42;99223.00;;;4.90
76898;BMP180;65856;52.178;21.176;2023-02-01T13:55:37;99227.00;;;4.90
76898;BMP180;65856;52.178;21.176;2023-02-01T13:58:20;99223.80;;;4.90
76898;BMP180;65856;52.178;21.176;2023-02-01T14:00:52;99226.00;;;4.90
76898;BMP180;65856;52.178;21.176;2023-02-01T14:03:50;99230.20;;;4.80
76898;BMP180;65856;52.178;21.176;2023-02-01T14:06:45;99220.80;;;4.80
76898;BMP180;65856;52.178;21.176;2023-02-01T14:09:30;99218.60;;;4.76
76898;BMP180;65856;52.178;21.176;2023-02-01T14:12:43;99215.20;;;4.70
76898;BMP180;65856;52.178;21.176;2023-02-01T14:19:01;99223.40;;;4.70
76898;BMP180;65856;52.178;21.176;2023-02-01T14:21:35;99217.40;;;4.70
76898;BMP180;65856;52.178;21.176;2023-02-01T14:24:24;99216.60;;;4.66
76898;BMP180;65856;52.178;21.176;2023-02-01T14:26:56;99214.00;;;4.70
76898;BMP180;65856;52.178;21.176;2023-02-01T14:29:32;99218.40;;;4.70
76898;BMP180;65856;52.178;21.176;2023-02-01T14:32:06;99210.40;;;4.70
76898;BMP180;65856;52.178;21.176;2023-02-01T14:34:53;99210.20;;;4.70
76898;BMP180;65856;52.178;21.176;2023-02-01T14:37:30;99207.80;;;4.70
76898;BMP180;65856;52.178;21.176;2023-02-01T14:40:04;99215.40;;;4.70
76898;BMP180;65856;52.178;21.176;2023-02-01T14:42:44;99221.00;;;4.70
76898;BMP180;65856;52.178;21.176;2023-02-01T14:45:50;99225.00;;;4.70
76898;BMP180;65856;52.178;21.176;2023-02-01T14:48:46;99225.40;;;4.70
76898;BMP180;65856;52.178;21.176;2023-02-01T14:51:18;99224.40;;;4.70
76898;BMP180;65856;52.178;21.176;2023-02-01T14:53:50;99220.40;;;4.60
76898;BMP180;65856;52.178;21.176;2023-02-01T14:56:21;99227.40;;;4.70
76898;BMP180;65856;52.178;21.176;2023-02-01T14:58:57;99220.60;;;4.70
76898;BMP180;65856;52.178;21.176;2023-02-01T15:01:32;99224.40;;;4.70
76898;BMP180;65856;52.178;21.176;2023-02-01T15:04:11;99220.20;;;4.70
76898;BMP180;65856;52.178;21.176;2023-02-01T15:06:44;99217.40;;;4.70
76898;BMP180;65856;52.178;21.176;2023-02-01T15:09:19;99220.00;;;4.70
76898;BMP180;65856;52.178;21.176;2023-02-01T15:12:04;99217.20;;;4.60
76898;BMP180;65856;52.178;21.176;2023-02-01T15:14:38;99225.20;;;4.62